Time;durP1;ratioP1;P1;durP2;ratioP2;P2;SDS_P1;SDS_P2;PMS_P1;PMS_P2;Temp;Humidity;BMP_temperature;BMP_pressure;BME280_temperature;BME280_humidity;BME280_pressure;Samples;Min_cycle;Max_cycle;Signal;HPM_P1;HPM_P2
2021/12/23 00:01:46;;;;;;;44.30;15.55;;;;;;;-5.00;96.70;99204.22;5068235;28;20055;-72
2021/12/23 00:04:12;;;;;;;43.60;15.43;;;;;;;-4.98;97.09;99199.69;5076480;28;20405;-73
2021/12/23 00:06:39;;;;;;;40.80;16.35;;;;;;;-5.12;97.55;99176.81;5055571;28;20031;-72
2021/12/23 00:09:05;;;;;;;38.75;15.98;;;;;;;-5.08;96.67;99178.34;5068113;28;20107;-72
2021/12/23 00:11:31;;;;;;;40.03;15.95;;;;;;;-5.01;97.06;99189.34;5054808;28;20031;-72
2021/12/23 00:14:05;;;;;;;45.28;17.33;;;;;;;-5.11;96.64;99183.78;5079008;28;20059;-73
2021/12/23 00:16:44;;;;;;;40.83;15.75;;;;;;;-5.11;97.02;99179.38;5067948;28;20044;-72
2021/12/23 00:24:40;;;;;;;38.33;15.13;;;;;;;-5.11;97.34;99181.16;5048531;28;20036;-72
2021/12/23 00:27:06;;;;;;;37.10;15.38;;;;;;;-5.02;97.06;99177.09;5067448;28;20016;-72
2021/12/23 00:29:32;;;;;;;42.38;16.27;;;;;;;-5.05;96.82;99150.91;5053356;28;20113;-72
2021/12/23 00:31:58;;;;;;;44.13;14.55;;;;;;;-4.96;96.20;99150.31;5049007;28;20772;-72
2021/12/23 00:34:24;;;;;;;41.60;15.40;;;;;;;-4.92;96.17;99143.94;5060951;28;20025;-72
2021/12/23 00:36:50;;;;;;;39.70;15.55;;;;;;;-4.87;95.64;99145.31;5040601;28;20020;-72
2021/12/23 00:39:16;;;;;;;41.80;15.48;;;;;;;-4.89;94.92;99128.72;5060082;28;20494;-72
2021/12/23 00:41:44;;;;;;;43.20;15.98;;;;;;;-4.74;94.94;99141.88;5052511;28;20126;-72
2021/12/23 00:44:09;;;;;;;42.63;16.10;;;;;;;-4.87;95.22;99132.13;5058212;28;20024;-72
2021/12/23 00:46:35;;;;;;;41.80;15.88;;;;;;;-4.79;95.22;99147.47;5048710;28;20025;-72
2021/12/23 00:49:00;;;;;;;34.30;15.18;;;;;;;-4.79;94.66;99142.19;5038691;28;20041;-72
2021/12/23 00:51:26;;;;;;;39.25;15.60;;;;;;;-4.82;94.71;99139.75;5042925;28;20410;-72
2021/12/23 00:53:54;;;;;;;37.85;14.98;;;;;;;-4.79;94.71;99134.28;5056076;28;20433;-72
2021/12/23 00:56:19;;;;;;;41.38;16.00;;;;;;;-4.88;95.30;99135.69;5056672;28;20028;-73
2021/12/23 00:58:45;;;;;;;42.22;16.05;;;;;;;-5.00;95.61;99117.16;5037018;28;20029;-72
2021/12/23 01:01:10;;;;;;;45.95;16.88;;;;;;;-4.97;95.55;99115.19;5052831;28;20039;-72
2021/12/23 01:03:36;;;;;;;38.88;15.15;;;;;;;-4.88;95.55;99134.84;5056426;28;20020;-72
2021/12/23 01:06:02;;;;;;;41.08;15.95;;;;;;;-4.95;96.00;99130.91;5050275;28;20033;-73
2021/12/23 01:08:27;;;;;;;36.58;15.15;;;;;;;-4.94;95.89;99135.25;5036960;28;20079;-73
2021/12/23 01:10:56;;;;;;;40.88;16.60;;;;;;;-5.03;96.37;99128.78;5043929;28;20025;-73
2021/12/23 01:13:26;;;;;;;45.38;15.93;;;;;;;-4.93;96.31;99116.66;5045897;28;20119;-73
2021/12/23 01:16:07;;;;;;;41.72;15.18;;;;;;;-4.87;95.69;99108.38;5055192;28;20110;-73
2021/12/23 01:18:41;;;;;;;36.53;15.30;;;;;;;-4.89;95.81;99102.34;5072844;28;20028;-73
2021/12/23 01:21:16;;;;;;;41.17;16.48;;;;;;;-4.85;95.47;99089.78;5037909;28;20020;-72
2021/12/23 01:23:48;;;;;;;40.35;15.30;;;;;;;-4.76;95.43;99098.94;5025939;28;20558;-73
2021/12/23 01:26:18;;;;;;;40.90;16.40;;;;;;;-4.85;94.98;99090.66;5092283;28;20020;-72
2021/12/23 01:28:45;;;;;;;42.30;15.93;;;;;;;-4.71;94.91;99100.31;5052208;28;20033;-72
2021/12/23 01:31:10;;;;;;;41.20;16.00;;;;;;;-4.65;94.19;99099.91;5056123;28;20111;-72
2021/12/23 01:33:35;;;;;;;39.17;16.40;;;;;;;-4.66;93.61;99090.31;5049265;28;20476;-72
2021/12/23 01:36:01;;;;;;;40.00;16.15;;;;;;;-4.62;93.65;99083.00;5061196;28;20037;-72
2021/12/23 01:38:26;;;;;;;38.78;15.73;;;;;;;-4.52;93.33;99081.47;5064169;28;20021;-72
2021/12/23 01:40:52;;;;;;;35.00;13.70;;;;;;;-4.42;92.53;99093.13;5056137;28;20021;-73
2021/12/23 01:43:17;;;;;;;34.10;15.50;;;;;;;-4.29;92.23;99106.34;5065344;28;20464;-72
2021/12/23 01:45:45;;;;;;;38.60;13.20;;;;;;;-4.17;91.09;99094.09;5051177;28;20083;-73
2021/12/23 01:48:10;;;;;;;37.55;14.60;;;;;;;-4.13;90.91;99081.56;5064285;28;20033;-74
2021/12/23 01:50:39;;;;;;;45.63;15.80;;;;;;;-4.10;90.42;99084.81;5063812;28;20040;-73
2021/12/23 01:53:04;;;;;;;34.53;14.60;;;;;;;-3.96;89.65;99091.81;5073289;28;20092;-73
2021/12/23 01:55:29;;;;;;;36.08;13.32;;;;;;;-4.06;89.50;99082.81;5079672;28;20005;-74
2021/12/23 01:57:57;;;;;;;43.60;16.35;;;;;;;-4.09;89.42;99085.66;5066109;28;20028;-73
2021/12/23 02:00:26;;;;;;;38.38;15.68;;;;;;;-4.18;89.86;99064.19;5058021;28;20095;-73
2021/12/23 02:02:52;;;;;;;;;;;;;;;-4.11;89.99;99069.06;5034055;28;20028;-74
2021/12/23 02:05:17;;;;;;;34.13;13.63;;;;;;;-4.18;90.54;99069.50;5074114;28;19909;-73
2021/12/23 02:07:43;;;;;;;37.78;14.82;;;;;;;-4.16;90.96;99063.28;5055041;28;20036;-73
2021/12/23 02:10:08;;;;;;;40.55;14.45;;;;;;;-4.15;90.82;99059.66;5053114;28;20029;-73
2021/12/23 02:12:34;;;;;;;31.58;13.98;;;;;;;-4.27;90.43;99050.75;5051217;28;20029;-73
2021/12/23 02:14:59;;;;;;;37.33;14.07;;;;;;;-4.18;90.34;99056.28;5054820;28;20067;-73
2021/12/23 02:17:25;;;;;;;34.75;13.45;;;;;;;-4.15;90.36;99052.59;5069269;28;20393;-73
2021/12/23 02:19:55;;;;;;;34.78;14.25;;;;;;;-4.20;90.36;99059.97;5053544;28;20115;-74
2021/12/23 02:22:20;;;;;;;37.30;14.38;;;;;;;-4.18;90.79;99058.09;5016785;28;20029;-73
2021/12/23 02:24:46;;;;;;;35.25;14.77;;;;;;;-4.25;89.51;99033.03;5058420;28;20043;-73
2021/12/23 02:27:11;;;;;;;39.38;14.55;;;;;;;-4.12;89.59;99049.72;5049300;28;20511;-74
2021/12/23 02:29:37;;;;;;;33.67;13.82;;;;;;;-4.05;89.16;99043.09;5063787;28;20047;-73
2021/12/23 02:32:03;;;;;;;38.03;14.13;;;;;;;-4.11;88.98;99027.66;5047514;28;20025;-73
2021/12/23 02:34:28;;;;;;;43.20;15.35;;;;;;;-4.15;88.77;99026.16;5050012;28;20146;-73
2021/12/23 02:36:57;;;;;;;38.10;13.85;;;;;;;-4.01;88.51;99043.69;5062776;28;20102;-73
2021/12/23 02:39:24;;;;;;;28.65;10.88;;;;;;;-4.03;89.17;99035.06;5040572;28;20170;-74
2021/12/23 02:41:50;;;;;;;40.15;14.48;;;;;;;-3.96;88.80;99015.16;5040085;28;20037;-74
2021/12/23 02:44:16;;;;;;;33.53;13.85;;;;;;;-3.81;87.19;99029.97;5046189;28;20025;-74
2021/12/23 02:46:41;;;;;;;34.13;14.10;;;;;;;-3.95;88.25;99014.22;5049966;28;20059;-73
2021/12/23 02:49:07;;;;;;;39.45;14.93;;;;;;;-3.99;88.92;99028.59;5055482;28;20041;-73
2021/12/23 02:51:32;;;;;;;44.60;15.43;;;;;;;-4.14;88.98;99013.78;5044570;28;20036;-73
2021/12/23 02:53:58;;;;;;;38.50;14.13;;;;;;;-4.17;89.28;99017.50;5029677;28;20478;-73
2021/12/23 02:56:23;;;;;;;31.48;13.60;;;;;;;-4.43;89.89;98982.28;5038534;28;20414;-73
2021/12/23 02:58:48;;;;;;;30.98;12.48;;;;;;;-4.18;89.58;99006.09;5032843;28;20072;-73
2021/12/23 03:01:16;;;;;;;40.08;15.63;;;;;;;-4.12;89.54;98988.13;5041396;28;20029;-73
2021/12/23 03:03:43;;;;;;;36.25;14.93;;;;;;;-4.04;89.00;99006.94;5050304;28;20050;-73
2021/12/23 03:06:10;;;;;;;33.28;13.77;;;;;;;-4.09;89.04;98977.34;5058038;28;20025;-74
2021/12/23 03:08:42;;;;;;;37.67;14.27;;;;;;;-3.95;88.40;98995.72;5067508;28;20529;-74
2021/12/23 03:11:11;;;;;;;35.33;14.25;;;;;;;-3.94;88.19;98991.28;5039334;28;20060;-73
2021/12/23 03:13:37;;;;;;;;;;;;;;;-3.97;88.73;98992.34;5065894;28;20044;-73
2021/12/23 03:16:04;;;;;;;32.70;12.48;;;;;;;-3.97;87.99;98984.41;5054172;28;19913;-74
2021/12/23 03:18:30;;;;;;;35.70;13.77;;;;;;;-3.97;88.33;98971.19;5038727;28;20033;-73
2021/12/23 03:20:56;;;;;;;33.78;13.75;;;;;;;-3.92;87.26;98969.09;5046843;28;20025;-74
2021/12/23 03:23:22;;;;;;;40.60;14.50;;;;;;;-3.94;87.02;98952.47;5037871;28;20025;-73
2021/12/23 03:25:47;;;;;;;35.05;14.07;;;;;;;-4.00;86.10;98953.75;5060023;28;20035;-74
2021/12/23 03:28:12;;;;;;;34.53;13.07;;;;;;;-4.02;87.11;98945.09;5047199;28;20155;-73
2021/12/23 03:30:38;;;;;;;34.83;12.90;;;;;;;-3.97;87.12;98971.19;5052033;28;20100;-74
2021/12/23 03:33:04;;;;;;;33.45;14.43;;;;;;;-3.94;87.09;98967.50;5060997;28;20477;-73
2021/12/23 03:35:29;;;;;;;38.30;15.13;;;;;;;-3.93;86.65;98959.47;5051138;28;20035;-74
2021/12/23 03:37:55;;;;;;;37.03;14.10;;;;;;;-3.93;86.88;98942.75;5060520;28;20025;-73
2021/12/23 03:40:21;;;;;;;36.35;14.65;;;;;;;-4.01;86.95;98938.88;5042377;28;20571;-73
2021/12/23 03:42:47;;;;;;;36.20;13.63;;;;;;;-3.89;86.88;98962.75;5051720;28;20394;-73
2021/12/23 03:45:12;;;;;;;35.78;13.23;;;;;;;-3.97;86.63;98931.56;5055310;28;20021;-73
2021/12/23 03:47:39;;;;;;;41.80;16.13;;;;;;;-3.90;86.51;98951.31;5045762;28;20031;-73
2021/12/23 03:50:06;;;;;;;37.42;14.63;;;;;;;-3.85;86.48;98943.03;5060043;28;20553;-74
2021/12/23 03:52:32;;;;;;;36.70;13.15;;;;;;;-4.02;86.21;98909.91;5045292;28;20387;-73
2021/12/23 03:54:57;;;;;;;41.42;15.25;;;;;;;-3.84;86.23;98940.31;5049824;28;20032;-73
2021/12/23 03:57:22;;;;;;;34.33;13.35;;;;;;;-3.90;86.66;98926.66;5049726;28;20024;-73
2021/12/23 03:59:48;;;;;;;37.90;13.00;;;;;;;-3.92;86.22;98905.66;5062842;28;20060;-73
2021/12/23 04:02:13;;;;;;;36.88;12.88;;;;;;;-3.80;86.00;98925.94;5046037;28;20036;-73
2021/12/23 04:04:39;;;;;;;31.20;12.18;;;;;;;-3.73;85.68;98930.78;5043533;28;20021;-73
2021/12/23 04:07:04;;;;;;;30.45;12.73;;;;;;;-3.87;84.42;98902.69;5049890;28;20026;-72
2021/12/23 04:09:30;;;;;;;36.47;13.25;;;;;;;-3.66;84.48;98932.03;5042378;28;20067;-73
2021/12/23 04:11:55;;;;;;;37.15;13.95;;;;;;;-3.76;84.82;98927.38;5051403;28;20029;-72
2021/12/23 04:14:20;;;;;;;37.38;14.23;;;;;;;-3.76;84.33;98926.56;5044779;28;20390;-73
2021/12/23 04:16:46;;;;;;;32.85;13.32;;;;;;;-3.62;84.28;98939.59;5059900;28;20489;-72
2021/12/23 04:19:11;;;;;;;32.13;13.07;;;;;;;-3.65;84.21;98928.41;5061939;28;20035;-73
2021/12/23 04:21:38;;;;;;;31.20;11.88;;;;;;;-3.58;83.80;98922.56;5052728;28;20031;-73
2021/12/23 04:24:04;;;;;;;35.65;13.02;;;;;;;-3.54;84.39;98937.28;5042640;28;20078;-72
2021/12/23 04:26:30;;;;;;;29.67;11.70;;;;;;;-3.52;83.28;98929.22;5048080;28;20032;-73
2021/12/23 04:28:55;;;;;;;33.13;12.95;;;;;;;-3.54;83.70;98928.47;5055093;28;20032;-72
2021/12/23 04:31:23;;;;;;;33.60;13.98;;;;;;;-3.47;83.26;98905.94;5055426;28;20447;-72
2021/12/23 04:33:50;;;;;;;33.30;12.75;;;;;;;-3.57;83.53;98889.03;5049048;28;20116;-73
2021/12/23 04:36:17;;;;;;;34.20;13.60;;;;;;;-3.51;83.67;98907.13;5055070;28;20475;-72
2021/12/23 04:38:43;;;;;;;36.63;13.25;;;;;;;-3.62;83.71;98883.25;5073188;28;20031;-72
2021/12/23 04:41:10;;;;;;;32.28;13.30;;;;;;;-3.64;82.92;98864.88;5036216;28;20041;-72
2021/12/23 04:43:35;;;;;;;31.77;12.65;;;;;;;-3.49;82.71;98891.97;5054244;28;22464;-72
2021/12/23 04:46:01;;;;;;;35.60;13.27;;;;;;;-3.46;82.73;98875.88;5056017;28;20021;-72
2021/12/23 04:48:27;;;;;;;36.97;13.30;;;;;;;-3.54;82.16;98863.22;5060737;28;20029;-72
2021/12/23 04:50:52;;;;;;;31.63;13.48;;;;;;;-3.39;82.81;98894.78;5030937;28;20049;-72
2021/12/23 04:53:18;;;;;;;30.77;12.88;;;;;;;-3.39;82.37;98874.47;5065457;28;20057;-72
2021/12/23 04:55:43;;;;;;;32.67;13.38;;;;;;;-3.48;82.41;98861.94;5049908;28;20099;-72
2021/12/23 04:58:08;;;;;;;31.65;12.48;;;;;;;-3.47;83.55;98868.91;5064374;28;20017;-72
2021/12/23 05:00:34;;;;;;;32.45;12.93;;;;;;;-3.54;83.13;98867.66;5036279;28;20029;-72
2021/12/23 05:03:00;;;;;;;29.80;12.88;;;;;;;-3.57;83.05;98849.38;5034558;28;20066;-72
2021/12/23 05:05:25;;;;;;;30.88;12.32;;;;;;;-3.49;82.81;98875.25;5059578;28;20028;-72
2021/12/23 05:07:51;;;;;;;34.70;12.95;;;;;;;-3.38;81.92;98865.59;5051108;28;20029;-72
2021/12/23 05:10:18;;;;;;;32.10;11.82;;;;;;;-3.45;81.25;98831.78;5035308;28;20048;-73
2021/12/23 05:12:45;;;;;;;33.30;11.43;;;;;;;-3.28;81.10;98854.31;5038285;28;20028;-72
2021/12/23 05:15:13;;;;;;;28.67;11.40;;;;;;;-3.22;81.25;98861.78;5047005;28;20100;-73
2021/12/23 05:17:39;;;;;;;34.03;13.73;;;;;;;-3.22;80.94;98857.34;5095009;22;20098;-71
2021/12/23 05:20:06;;;;;;;33.63;12.25;;;;;;;-3.49;81.36;98835.59;5059606;28;20048;-72
2021/12/23 05:22:32;;;;;;;36.35;14.35;;;;;;;-3.72;82.79;98819.63;5074029;28;20021;-71
2021/12/23 05:24:57;;;;;;;33.67;13.32;;;;;;;-3.71;83.88;98854.84;5061358;28;20552;-72
2021/12/23 05:27:23;;;;;;;38.55;13.27;;;;;;;-3.93;84.08;98847.59;5057911;28;20032;-71
2021/12/23 05:29:48;;;;;;;36.72;13.98;;;;;;;-3.79;84.84;98885.31;5066467;28;20103;-72
2021/12/23 05:32:13;;;;;;;35.97;14.10;;;;;;;-3.84;85.64;98890.09;5057635;28;20078;-72
2021/12/23 05:34:39;;;;;;;30.13;13.00;;;;;;;-4.12;85.08;98845.44;5051646;28;20099;-72
2021/12/23 05:37:04;;;;;;;34.25;13.00;;;;;;;-4.08;85.47;98858.34;5034263;28;20029;-76
2021/12/23 05:39:30;;;;;;;31.67;13.80;;;;;;;-4.29;86.69;98833.47;5026398;28;20112;-72
2021/12/23 05:41:55;;;;;;;34.03;12.63;;;;;;;-4.26;86.99;98841.16;5037325;28;20025;-74
2021/12/23 05:44:20;;;;;;;39.67;13.07;;;;;;;-4.14;86.94;98868.50;5053787;28;20433;-69
2021/12/23 05:46:45;;;;;;;34.95;12.85;;;;;;;-4.16;86.94;98828.16;5030855;28;20575;-72
2021/12/23 05:49:12;;;;;;;31.58;13.38;;;;;;;-3.95;86.32;98826.59;5066972;28;20020;-72
2021/12/23 05:51:38;;;;;;;32.53;12.73;;;;;;;-3.82;85.58;98837.97;5036724;28;20115;-70
2021/12/23 05:54:04;;;;;;;34.63;12.90;;;;;;;-3.72;85.00;98832.00;5052034;28;20169;-70
2021/12/23 05:56:29;;;;;;;31.95;11.95;;;;;;;-3.76;84.80;98815.53;5059474;28;20087;-76
2021/12/23 05:58:55;;;;;;;33.75;13.10;;;;;;;-3.66;84.73;98810.41;5036307;28;20021;-69
2021/12/23 06:01:20;;;;;;;30.73;12.23;;;;;;;-3.90;84.16;98802.47;5056557;28;20040;-73
2021/12/23 06:03:52;;;;;;;37.47;12.02;;;;;;;-3.88;82.97;98793.47;5060249;28;20039;-74
2021/12/23 06:06:17;;;;;;;38.35;13.68;;;;;;;-3.84;84.74;98813.44;5063677;28;20028;-75
2021/12/23 06:08:43;;;;;;;37.95;13.20;;;;;;;-4.34;85.23;98745.78;5043340;28;20029;-74
2021/12/23 06:11:09;;;;;;;31.30;12.82;;;;;;;-4.03;85.89;98791.97;5036479;28;20107;-71
2021/12/23 06:13:35;;;;;;;33.83;13.52;;;;;;;-4.01;84.70;98790.03;5053571;28;20147;-71
2021/12/23 06:16:00;;;;;;;33.30;13.07;;;;;;;-3.68;84.52;98817.59;5054827;28;20060;-72
2021/12/23 06:18:26;;;;;;;35.00;13.77;;;;;;;-3.64;84.33;98806.69;5060128;28;20035;-73
2021/12/23 06:20:51;;;;;;;36.88;13.55;;;;;;;-3.76;84.04;98803.13;5053264;28;20377;-72
2021/12/23 06:23:17;;;;;;;34.25;13.10;;;;;;;-3.82;84.73;98806.25;5053552;28;20075;-72
2021/12/23 06:25:43;;;;;;;35.47;12.75;;;;;;;-4.08;84.71;98786.16;5042220;28;20037;-73
2021/12/23 06:28:08;;;;;;;33.05;12.23;;;;;;;-4.01;85.13;98782.09;5035637;28;20025;-73
2021/12/23 06:30:34;;;;;;;34.60;12.65;;;;;;;-3.97;84.55;98797.63;5053899;28;20029;-72
2021/12/23 06:32:59;;;;;;;31.23;12.68;;;;;;;-3.77;84.60;98829.72;5053435;28;20044;-72
2021/12/23 06:35:27;;;;;;;33.63;13.10;;;;;;;-3.76;85.06;98829.56;5039513;28;20075;-72
2021/12/23 06:37:53;;;;;;;35.03;13.43;;;;;;;-3.79;85.42;98840.38;5036863;28;20078;-71
2021/12/23 06:40:20;;;;;;;37.05;13.48;;;;;;;-3.73;85.53;98846.19;5056688;28;20274;-72
2021/12/23 06:42:45;;;;;;;35.10;13.30;;;;;;;-3.85;85.50;98822.34;5056066;28;20501;-72
2021/12/23 06:45:12;;;;;;;33.97;13.50;;;;;;;-3.73;84.54;98828.50;5051966;28;20050;-70
2021/12/23 06:47:38;;;;;;;33.35;13.10;;;;;;;-3.69;84.72;98829.13;5065230;28;20029;-70
2021/12/23 06:50:06;;;;;;;34.42;13.18;;;;;;;-3.58;82.89;98826.53;5056009;28;20021;-71
2021/12/23 06:52:32;;;;;;;33.67;13.02;;;;;;;-3.46;83.20;98827.41;5059894;28;20033;-70
2021/12/23 06:54:58;;;;;;;33.10;13.20;;;;;;;-3.52;82.79;98823.44;5050955;28;20494;-70
2021/12/23 06:57:25;;;;;;;34.28;12.23;;;;;;;-3.46;82.68;98815.03;5047672;28;20024;-71
2021/12/23 06:59:50;;;;;;;31.77;13.40;;;;;;;-3.49;82.92;98807.34;5053249;28;20028;-70
2021/12/23 07:02:16;;;;;;;30.67;11.73;;;;;;;-3.47;81.81;98813.34;5058327;28;20570;-70
2021/12/23 07:04:43;;;;;;;30.15;11.25;;;;;;;-3.46;80.69;98788.59;5053115;28;20037;-70
2021/12/23 07:07:10;;;;;;;26.80;11.75;;;;;;;-3.23;79.62;98812.47;5051780;28;20435;-71
2021/12/23 07:09:37;;;;;;;29.33;11.18;;;;;;;-3.28;79.45;98794.28;5051974;28;20051;-71
2021/12/23 07:12:03;;;;;;;29.83;11.18;;;;;;;-3.05;79.45;98818.19;5048704;28;20070;-70
2021/12/23 07:14:29;;;;;;;31.88;11.85;;;;;;;-3.01;78.78;98820.47;5046882;28;20104;-71
2021/12/23 07:16:54;;;;;;;28.30;11.70;;;;;;;-2.95;78.74;98811.22;5053105;28;20071;-70
2021/12/23 07:19:19;;;;;;;31.25;11.27;;;;;;;-2.97;78.37;98808.69;5051614;28;20124;-70
2021/12/23 07:21:44;;;;;;;29.48;11.10;;;;;;;-2.98;78.32;98806.16;5045327;28;20094;-70
2021/12/23 07:24:10;;;;;;;31.48;13.02;;;;;;;-3.09;80.26;98805.19;5051862;28;20078;-71
2021/12/23 07:26:35;;;;;;;32.83;13.45;;;;;;;-3.09;80.47;98793.75;5057453;28;20496;-71
2021/12/23 07:29:01;;;;;;;29.77;12.43;;;;;;;-3.09;79.68;98804.34;5059353;28;20021;-71
2021/12/23 07:31:26;;;;;;;31.75;13.07;;;;;;;-3.23;80.68;98792.16;5039773;28;20025;-69
2021/12/23 07:33:51;;;;;;;35.53;13.00;;;;;;;-3.25;81.33;98809.09;5036160;28;20066;-71
2021/12/23 07:36:18;;;;;;;32.45;12.82;;;;;;;-3.39;81.90;98810.13;5051883;28;20044;-70
2021/12/23 07:38:44;;;;;;;32.42;12.73;;;;;;;-3.40;81.90;98809.31;5051498;28;20486;-71
2021/12/23 07:41:09;;;;;;;29.35;12.60;;;;;;;-3.51;82.79;98811.91;5063458;28;20024;-70
2021/12/23 07:46:01;;;;;;;29.30;12.55;;;;;;;-3.46;83.01;98782.47;5060243;28;20107;-72
2021/12/23 07:48:27;;;;;;;35.30;12.93;;;;;;;-3.25;82.07;98795.88;5043077;28;20021;-71
2021/12/23 07:50:55;;;;;;;40.33;14.07;;;;;;;-3.18;81.91;98781.22;5050027;28;20066;-72
2021/12/23 07:53:21;;;;;;;32.88;10.75;;;;;;;-3.15;81.77;98778.34;5034428;28;20402;-71
2021/12/23 07:55:46;;;;;;;32.60;12.23;;;;;;;-3.04;80.44;98770.41;5054010;28;20037;-72
2021/12/23 07:58:11;;;;;;;33.40;13.32;;;;;;;-2.78;79.49;98781.63;5055878;28;20092;-72
2021/12/23 08:00:37;;;;;;;30.42;12.43;;;;;;;-2.68;78.63;98779.09;5038093;28;20025;-73
2021/12/23 08:03:02;;;;;;;32.92;12.80;;;;;;;-2.57;78.08;98789.69;5058092;28;20024;-73
2021/12/23 08:05:28;;;;;;;32.55;12.98;;;;;;;-2.61;77.62;98758.28;5038029;28;20025;-71
2021/12/23 08:07:55;;;;;;;31.58;12.13;;;;;;;-2.30;76.49;98754.88;5056057;28;20036;-72
2021/12/23 08:10:20;;;;;;;32.13;11.82;;;;;;;-2.13;75.76;98768.56;5055685;28;20021;-72
2021/12/23 08:12:46;;;;;;;27.23;11.50;;;;;;;-1.94;74.97;98786.47;5053737;28;20036;-73
2021/12/23 08:15:11;;;;;;;28.80;11.98;;;;;;;-1.81;74.00;98750.03;5040749;28;20037;-70
2021/12/23 08:17:37;;;;;;;30.50;12.02;;;;;;;-1.51;72.89;98751.13;5032702;28;20044;-73
2021/12/23 08:20:05;;;;;;;29.67;11.70;;;;;;;-1.32;72.21;98759.22;5057465;28;20028;-72
2021/12/23 08:22:31;;;;;;;28.25;11.32;;;;;;;-1.24;71.35;98779.81;5070711;28;20024;-70
2021/12/23 08:24:57;;;;;;;26.77;10.85;;;;;;;-1.13;70.36;98751.41;5047294;28;20028;-76
2021/12/23 08:27:26;;;;;;;30.73;11.90;;;;;;;-0.97;69.12;98731.47;5059039;28;20028;-76
2021/12/23 08:29:51;;;;;;;30.48;11.65;;;;;;;-0.81;70.10;98766.38;5075074;28;20032;-71
2021/12/23 08:32:16;;;;;;;28.65;11.73;;;;;;;-0.77;69.16;98761.63;5066819;28;20021;-71
2021/12/23 08:34:41;;;;;;;28.83;11.55;;;;;;;-0.53;68.68;98758.66;5053861;28;20025;-69
2021/12/23 08:37:11;;;;;;;27.48;11.13;;;;;;;-0.39;67.74;98760.09;5053947;28;20033;-73
2021/12/23 08:39:37;;;;;;;24.70;10.98;;;;;;;-0.62;67.99;98738.22;5051207;28;20029;-71
2021/12/23 08:42:02;;;;;;;27.92;9.23;;;;;;;-0.61;67.43;98734.56;5058731;28;20028;-70
2021/12/23 08:44:28;;;;;;;26.95;10.80;;;;;;;-0.88;69.50;98723.56;5055710;28;20024;-76
2021/12/23 08:46:53;;;;;;;26.85;10.75;;;;;;;-0.75;68.33;98733.97;5053403;28;20206;-73
2021/12/23 08:49:19;;;;;;;31.23;11.07;;;;;;;-0.83;68.16;98707.22;5051701;28;20024;-71
2021/12/23 08:51:44;;;;;;;36.55;11.05;;;;;;;-0.17;67.91;98743.09;5054274;28;20029;-74
2021/12/23 08:54:10;;;;;;;30.70;12.70;;;;;;;-0.12;66.52;98733.72;5032153;28;20013;-72
2021/12/23 08:56:35;;;;;;;28.83;11.90;;;;;;;0.07;66.86;98730.25;5055824;28;20028;-72
2021/12/23 08:59:01;;;;;;;28.98;12.43;;;;;;;0.59;65.49;98698.88;5055762;28;20047;-74
2021/12/23 09:01:26;;;;;;;36.92;12.90;;;;;;;1.68;60.84;98733.84;5056848;28;20405;-74
2021/12/23 09:03:51;;;;;;;29.98;11.55;;;;;;;3.01;57.41;98714.38;5049252;28;20537;-73
2021/12/23 09:06:17;;;;;;;28.63;12.07;;;;;;;3.46;55.27;98729.31;5035783;28;20537;-71
2021/12/23 09:08:42;;;;;;;32.35;12.48;;;;;;;3.11;55.82;98727.59;5052160;28;20029;-71
2021/12/23 09:11:08;;;;;;;32.10;13.20;;;;;;;2.27;57.87;98730.78;5040434;28;20394;-75
2021/12/23 09:13:34;;;;;;;28.60;11.63;;;;;;;1.90;59.59;98703.25;5052664;28;20453;-75
2021/12/23 09:16:00;;;;;;;29.35;12.00;;;;;;;1.31;61.41;98713.41;5035790;28;20025;-77
2021/12/23 09:18:26;;;;;;;30.02;12.15;;;;;;;0.88;63.41;98745.91;5052289;28;20032;-73
2021/12/23 09:20:52;;;;;;;28.92;12.35;;;;;;;0.70;63.54;98743.13;5028617;28;20025;-75
2021/12/23 09:23:18;;;;;;;30.25;12.73;;;;;;;0.32;64.38;98699.59;5053689;28;20035;-73
2021/12/23 09:25:46;;;;;;;29.42;11.25;;;;;;;0.34;64.70;98704.78;5037009;28;20032;-72
2021/12/23 09:28:31;;;;;;;25.85;11.45;;;;;;;0.56;63.68;98715.13;5054477;28;20417;-74
2021/12/23 09:33:43;;;;;;;24.67;11.00;;;;;;;0.65;64.01;98718.75;5062202;28;20067;-73
2021/12/23 09:36:09;;;;;;;23.92;9.80;;;;;;;0.70;64.11;98737.81;5052188;28;20029;-74
2021/12/23 09:38:34;;;;;;;24.88;10.85;;;;;;;0.49;64.52;98727.31;5036958;28;20879;-73
2021/12/23 09:41:01;;;;;;;23.42;10.05;;;;;;;0.25;64.89;98734.91;5049278;28;20525;-70
2021/12/23 09:43:29;;;;;;;25.15;11.05;;;;;;;0.24;65.91;98726.09;5049670;28;20028;-75
2021/12/23 09:45:55;;;;;;;24.65;10.30;;;;;;;0.20;66.23;98733.47;5031925;28;20057;-72
2021/12/23 09:48:21;;;;;;;26.27;10.65;;;;;;;0.23;66.56;98727.03;5050149;28;20060;-70
2021/12/23 09:50:49;;;;;;;23.40;9.77;;;;;;;0.25;66.85;98722.44;5041947;28;20088;-76
2021/12/23 09:53:21;;;;;;;24.83;9.88;;;;;;;0.44;66.09;98718.91;5069972;28;20059;-77
2021/12/23 09:58:14;;;;;;;22.48;9.48;;;;;;;0.58;65.91;98718.50;5012259;28;20025;-72
2021/12/23 10:00:45;;;;;;;22.05;9.23;;;;;;;0.66;65.47;98701.81;5009551;28;20417;-72
2021/12/23 10:03:12;;;;;;;21.75;9.45;;;;;;;0.76;65.55;98709.75;5033259;28;20090;-71
2021/12/23 10:05:39;;;;;;;19.77;9.35;;;;;;;0.95;65.39;98708.91;5023649;28;20044;-75
2021/12/23 10:08:06;;;;;;;22.02;9.43;;;;;;;0.98;64.63;98703.28;5007376;28;20081;-74
2021/12/23 10:10:42;;;;;;;18.13;8.18;;;;;;;1.07;64.22;98695.25;5096394;22;20037;-71
2021/12/23 10:32:49;;;;;;;21.92;9.23;;;;;;;1.94;62.93;98669.94;5074372;28;20112;-72
2021/12/23 10:38:03;;;;;;;19.60;9.27;;;;;;;1.86;62.96;98679.69;5075141;28;20039;-74
2021/12/23 10:40:29;;;;;;;23.48;9.75;;;;;;;1.93;63.43;98670.09;5080209;28;20028;-72
2021/12/23 10:42:54;;;;;;;21.55;10.07;;;;;;;1.85;63.30;98654.84;5077116;28;20034;-75
2021/12/23 10:45:19;;;;;;;23.08;10.02;;;;;;;1.78;63.30;98627.09;5082656;28;20028;-76
2021/12/23 10:53:35;;;;;;;22.63;10.32;;;;;;;1.96;63.42;98619.94;5075858;28;20035;-71
2021/12/23 10:59:03;;;;;;;23.35;9.30;;;;;;;2.41;62.19;98635.00;5087811;28;20039;-71
2021/12/23 11:01:29;;;;;;;20.45;9.65;;;;;;;2.28;62.80;98613.19;5080994;28;20024;-70
2021/12/23 11:04:01;;;;;;;19.77;9.35;;;;;;;2.48;62.32;98629.00;5079190;28;20120;-71
2021/12/23 11:06:32;;;;;;;21.70;9.80;;;;;;;2.58;62.04;98622.56;5064615;28;20062;-70
2021/12/23 11:28:54;;;;;;;18.50;8.85;;;;;;;2.71;63.26;98598.13;5069554;28;20067;-70
2021/12/23 11:39:28;;;;;;;20.42;9.27;;;;;;;3.14;61.63;98572.25;5074256;28;20025;-69
2021/12/23 11:42:14;;;;;;;19.77;9.20;;;;;;;3.17;61.92;98566.59;5070676;28;20431;-69
2021/12/23 11:44:40;;;;;;;21.65;9.20;;;;;;;3.23;61.80;98557.94;5057928;28;20028;-69
2021/12/23 11:47:11;;;;;;;21.70;10.13;;;;;;;3.30;62.00;98563.44;5079792;28;20032;-69
2021/12/23 11:49:39;;;;;;;20.40;8.93;;;;;;;3.46;61.46;98560.00;5077885;28;20031;-69
2021/12/23 11:52:04;;;;;;;18.50;8.55;;;;;;;3.65;60.75;98549.00;5073031;28;20020;-69
2021/12/23 11:54:33;;;;;;;18.63;9.20;;;;;;;3.89;60.41;98542.81;5070880;28;20035;-69
2021/12/23 11:57:13;;;;;;;17.90;9.02;;;;;;;3.78;60.22;98515.56;5074253;28;20133;-69
2021/12/23 11:59:40;;;;;;;17.38;8.55;;;;;;;3.90;60.21;98504.34;5079199;28;20028;-69
2021/12/23 12:02:18;;;;;;;19.70;8.52;;;;;;;4.03;60.38;98524.41;5059143;28;20028;-69
2021/12/23 12:04:45;;;;;;;20.92;8.98;;;;;;;3.96;60.75;98508.19;5077506;28;20025;-69
2021/12/23 12:07:16;;;;;;;20.17;8.88;;;;;;;4.25;61.07;98529.06;5078367;28;20019;-69
2021/12/23 12:09:57;;;;;;;18.55;8.85;;;;;;;4.05;61.45;98519.72;5086714;28;20028;-69
2021/12/23 12:12:23;;;;;;;20.67;9.10;;;;;;;4.01;61.19;98495.13;5073136;28;20043;-69
2021/12/23 12:14:48;;;;;;;16.88;8.18;;;;;;;4.21;61.46;98510.84;5078730;28;20024;-69
2021/12/23 12:17:26;;;;;;;21.42;9.30;;;;;;;4.32;60.87;98513.13;5059809;28;20524;-69
2021/12/23 12:20:15;;;;;;;28.67;12.35;;;;;;;4.29;60.63;98459.94;5079646;28;20066;-69
2021/12/23 12:22:47;;;;;;;21.52;8.77;;;;;;;4.55;61.57;98514.09;5076271;28;20029;-69
2021/12/23 12:25:38;;;;;;;20.70;9.43;;;;;;;4.66;61.09;98502.16;5080918;28;20027;-69
2021/12/23 12:28:04;;;;;;;18.27;7.88;;;;;;;4.72;60.30;98488.09;5081518;28;20070;-69
2021/12/23 12:30:49;;;;;;;18.35;8.88;;;;;;;4.80;60.74;98495.25;5080176;28;20024;-69
2021/12/23 12:33:23;;;;;;;17.20;8.57;;;;;;;4.85;60.80;98492.91;5071350;28;20016;-69